EGHIEGHH

Guest
Details From EGHI - Southampton
To EGHH - Bournemouth
Flight Number -
Tags generated
Created
Modified
Stats Distance 22 nm / 41 km
Max Altitude 100 ft / 30 m
Waypoints 3
Social Downloads 22
Likes 0
Share VATSIM

Download

Looking for another format? Having issues loading an existing format? Contact us
Advertisement - Login to hide

Notes

Basic altitude profile: - Ascent Rate: 2500ft/min - Ascent Speed: 250kts - Cruise Altitude: 35000ft - Cruise Speed: 420kts - Descent Rate: 1500ft/min - Descent Speed: 250kts Options: - Use NATs: yes - Use PACOTS: yes - Use low airways: yes - Use high airways: yes

Route

EGHI SAM EGHH

ID Type Via Altitude Latitude Longitude Leg Dist Tot Dist Heading (true) Name
O EGHI APT - 0 ft / 0 m 50.95026˚ -1.35681˚ - 0 nm - Southampton
SAM VOR - 100 ft / 30 m 50.95528˚ -1.34500˚ 0 nm 0 nm 56° / 56° SOUTHAMPTON VOR-DME
O EGHH APT - 0 ft / 0 m 50.78007˚ -1.84253˚ 21 nm 22 nm 241° / 241° Bournemouth

Altitude Profile

Advertisement - Login to hide

EGHI

Details ICAO EGHI (SOU)
Name Southampton
Region United Kingdom
Timezone Europe/London (UTC+0.0)
Stats Elevation 44 ft / 13 m (AMSL)
Location 50.950255° -1.356806°
Runways 1
Magnetic Variation 0.811° W

METAR

EGHI 181320Z VRB03KT 9999 FEW045 07/02 Q1030

Decode

TAF

Not found

Departure Runways

ID Width Length Bearing (true) Bearing (mag) Surface Threshold Offset Overrun Length
02 121 ft / 37 m 5,650 ft / 1,722 m 19.33° 20.14° Asphalt 240 ft / 73 m 0 ft / 0 m
20 121 ft / 37 m 5,650 ft / 1,722 m 199.34° 200.15° Asphalt 144 ft / 44 m 0 ft / 0 m

EGHH

Details ICAO EGHH (BOH)
Name Bournemouth
Region United Kingdom
Timezone Europe/London (UTC+0.0)
Stats Elevation 38 ft / 12 m (AMSL)
Location 50.780065° -1.842533°
Runways 1
Magnetic Variation 0.961° W

METAR

EGHH 181320Z VRB03KT CAVOK 08/04 Q1030

Decode

TAF

Not found

Destination Runways

ID Width Length Bearing (true) Bearing (mag) Surface Threshold Offset Overrun Length
08 151 ft / 46 m 7,440 ft / 2,268 m 75.27° 76.23° Asphalt 1,424 ft / 434 m 0 ft / 0 m
26 151 ft / 46 m 7,440 ft / 2,268 m 255.29° 256.25° Asphalt 0 ft / 0 m 328 ft / 100 m

Approach Navaids

Runway Type Ident Frequency Range Bearing (true) Bearing (mag) Slope Elevation
08 Localiser IBMH 110.50 MHz 18 nm / 33 km 75.09° 76.05° - 32 ft / 10 m (AMSL)
08 Glidescope IBMH 110.50 MHz 18 nm / 33 km 75.09° 76.05° 3.00° 30 ft / 9 m (AMSL)
08 DME IBMH 110.50 MHz 20 nm / 37 km - - - 31 ft / 9 m (AMSL)
26 Localiser IBH 110.50 MHz 18 nm / 33 km 255.41° 256.37° - 33 ft / 10 m (AMSL)
26 Glidescope IBH 110.50 MHz 18 nm / 33 km 255.41° 256.37° 3.00° 36 ft / 11 m (AMSL)
26 DME IBH 110.50 MHz 20 nm / 37 km - - - 31 ft / 9 m (AMSL)

Popular Alternatives